createdAt,value
2022-12-18T00:00:22.077Z,-6.960727163461539
2022-12-18T00:06:43.429Z,-6.800806725543477
2022-12-18T00:13:09.888Z,-6.717649979096991
2022-12-18T00:26:05.509Z,-6.885042589882943
2022-12-18T00:32:28.411Z,-6.772321148620401
2022-12-18T00:38:50.974Z,-6.9834265259197315
2022-12-18T00:45:29.817Z,-7.089747726797659
2022-12-18T00:52:22.481Z,-6.985138613085285
2022-12-18T00:58:49.435Z,-6.899120767140468
2022-12-18T01:05:16.293Z,-6.828394126254181
2022-12-18T01:11:38.511Z,-6.79236060305184
2022-12-18T01:17:59.674Z,-6.872193770903009
2022-12-18T01:24:24.172Z,-7.11433881166388
2022-12-18T01:34:37.353Z,-6.823267009824415
2022-12-18T01:44:36.911Z,-6.803838968436455
2022-12-18T01:50:58.360Z,-6.882474785744147
2022-12-18T01:57:24.443Z,-6.780025214255853
2022-12-18T02:03:48.020Z,-6.914251280309364
2022-12-18T02:10:11.538Z,-6.9586433946488295
2022-12-18T02:16:33.513Z,-6.952571723453177
2022-12-18T02:32:18.159Z,-6.881437473871237
2022-12-18T02:38:39.987Z,-6.983236439172241
2022-12-18T02:45:06.157Z,-6.9949839308110375
2022-12-18T03:03:51.264Z,-6.845199493102007
2022-12-18T03:10:13.556Z,-6.795637803093645
2022-12-18T03:16:35.477Z,-6.879513743729097
2022-12-18T03:22:57.264Z,-6.9499993467809364
2022-12-18T03:29:46.404Z,-6.890351301212375
2022-12-18T03:36:07.108Z,-6.8016722408026755
2022-12-18T03:48:34.526Z,-7.090122674540133
2022-12-18T03:57:26.579Z,-6.899775292642141
2022-12-18T04:07:51.866Z,-6.932241586538462
2022-12-18T04:16:02.817Z,-6.971243337165552
2022-12-18T04:22:26.768Z,-7.058302414297658
2022-12-18T04:33:06.813Z,-7.120531981605351
2022-12-18T04:39:28.692Z,-6.950356004389633
2022-12-18T04:45:50.913Z,-7.094274534908027
2022-12-18T04:52:12.087Z,-7.061645589464883
2022-12-18T04:58:33.380Z,-7.2032445390886295
2022-12-18T05:04:55.329Z,-7.259373040342809
2022-12-18T05:11:17.088Z,-7.159099994774248
2022-12-18T05:20:01.574Z,-7.428940870610368
2022-12-18T05:27:03.970Z,-7.392749921613711
2022-12-18T05:33:24.118Z,-7.436671718227425
2022-12-18T05:39:44.795Z,-7.408209657190634
2022-12-18T05:46:05.647Z,-7.509497805183947
2022-12-18T05:52:25.601Z,-7.377678851379599
2022-12-18T05:58:45.129Z,-7.609040551839463
2022-12-18T06:05:05.977Z,-7.6065361099498325
2022-12-18T06:11:25.424Z,-7.578405884197324
2022-12-18T06:17:47.263Z,-7.60939524979097
2022-12-18T06:24:08.214Z,-7.586117788461539
2022-12-18T06:32:35.920Z,-7.543007943143813
2022-12-18T06:39:00.719Z,-7.624837348453178
2022-12-18T06:48:39.513Z,-7.5899796195652165
2022-12-18T06:55:00.380Z,-7.680845657399664
2022-12-18T07:01:19.821Z,-7.56607441471572
2022-12-18T07:11:57.778Z,-7.68199271007525
2022-12-18T07:18:17.446Z,-7.734630408653843
2022-12-18T07:24:39.066Z,-7.791526442307692
2022-12-18T07:31:00.197Z,-7.750812604515049
2022-12-18T07:37:27.491Z,-7.636485550794313
2022-12-18T07:44:51.480Z,-7.7791244251672245
2022-12-18T07:54:49.106Z,-7.822260399247493
2022-12-18T08:01:13.604Z,-7.76381754285117
2022-12-18T08:07:40.418Z,-7.770807640050166
2022-12-18T08:18:14.410Z,-7.734597094481606
2022-12-18T08:24:42.061Z,-7.772927335911371
2022-12-18T08:38:50.615Z,-7.459139187918061
2022-12-18T08:45:18.167Z,-7.388714334239131
2022-12-18T08:51:47.501Z,-7.255727424749164
2022-12-18T08:58:14.891Z,-7.065762176003344
2022-12-18T09:04:39.129Z,-7.153054452341136
2022-12-18T09:11:04.037Z,-6.997304164924748
2022-12-18T09:24:45.408Z,-6.529888691471572
2022-12-18T09:31:09.706Z,-6.4698911737040135
2022-12-18T09:38:45.085Z,-6.232321932483277
2022-12-18T09:45:09.530Z,-6.224355926003344
2022-12-18T09:51:31.962Z,-6.162937003553512
2022-12-18T09:57:53.159Z,-5.965037756061873
2022-12-18T10:10:09.511Z,-5.781096493520067
2022-12-18T10:17:50.164Z,-5.651337139423077
2022-12-18T10:24:11.879Z,-5.690298390468228
2022-12-18T10:30:33.171Z,-5.479328882734114
2022-12-18T10:36:55.047Z,-5.39451295986622
2022-12-18T10:48:05.305Z,-5.296382472826088
2022-12-18T10:59:22.904Z,-5.211831756897992
2022-12-18T11:06:07.276Z,-4.937250470317726
2022-12-18T11:12:29.736Z,-4.758464412625418
2022-12-18T11:18:52.688Z,-4.734147679765886
2022-12-18T11:41:09.784Z,-4.189355795359532
2022-12-18T12:01:23.864Z,-3.6429132263795982
2022-12-18T12:11:34.002Z,-3.4924664245401336
2022-12-18T12:25:10.238Z,-3.3534940687709036
2022-12-18T12:33:21.811Z,-3.400250836120401
2022-12-18T12:39:54.434Z,-3.272315269648829
2022-12-18T12:46:28.837Z,-3.322916231187291
2022-12-18T12:53:51.247Z,-3.3050533026755855
2022-12-18T13:00:31.495Z,-3.2808332462374583
2022-12-18T13:10:27.049Z,-3.206251306438127
2022-12-18T13:16:52.978Z,-3.171794654055184
2022-12-18T13:31:54.177Z,-3.1145700512123744
2022-12-18T13:38:24.052Z,-3.055956704640468
2022-12-18T13:44:47.117Z,-3.062238059155518
2022-12-18T13:51:12.085Z,-3.0193699048913043
2022-12-18T13:57:35.412Z,-3.015430993938127
2022-12-18T14:04:00.867Z,-2.972103626672241
2022-12-18T14:10:47.730Z,-2.9210205894648835
2022-12-18T14:17:17.675Z,-2.897917537625418
2022-12-18T14:23:41.954Z,-2.852412338001672
2022-12-18T14:31:50.492Z,-2.8465862771739134
2022-12-18T14:40:40.904Z,-2.8375326609531775
2022-12-18T14:48:22.934Z,-2.8519132786371237
2022-12-18T14:54:51.091Z,-2.8959611465301003
2022-12-18T15:01:17.771Z,-2.9062023150083616
2022-12-18T15:07:41.460Z,-2.9101680079431436
2022-12-18T15:27:25.820Z,-2.966751149665552
2022-12-18T15:39:13.221Z,-2.8860616116220736
2022-12-18T15:45:34.764Z,-2.864579196279265
2022-12-18T15:51:55.930Z,-2.840529630016723
2022-12-18T15:59:17.404Z,-2.7939577236622073
2022-12-18T16:05:39.952Z,-2.794038722826087
2022-12-18T16:23:25.485Z,-2.7223662207357857
2022-12-18T16:29:47.801Z,-2.7144968906772573
2022-12-18T16:36:10.983Z,-2.7533314172240804
2022-12-18T16:46:03.788Z,-2.7794771634615385
2022-12-18T17:02:24.537Z,-2.746385738921405
2022-12-18T17:08:49.715Z,-2.7473518499163876
2022-12-18T17:15:13.453Z,-2.7524678616220735
2022-12-18T17:21:37.713Z,-2.757795516304348
2022-12-18T17:30:14.775Z,-2.7941125365802675
2022-12-18T17:36:38.101Z,-2.784740149456522
2022-12-18T17:43:00.804Z,-2.8295490175585285
2022-12-18T17:49:56.199Z,-2.746554922658863
2022-12-18T17:58:20.391Z,-2.7346735211120397
2022-12-18T18:04:42.210Z,-2.7205659489966556
2022-12-18T18:11:08.774Z,-2.7032079588210705
2022-12-18T18:18:28.080Z,-2.672253867056856
2022-12-18T18:24:50.145Z,-2.672176133988294
2022-12-18T18:31:13.040Z,-2.656443352842809
2022-12-18T18:37:35.233Z,-2.6185795098244147
2022-12-18T18:43:58.770Z,-2.593258779264214
2022-12-18T18:50:21.304Z,-2.570986622073579
2022-12-18T18:57:19.042Z,-2.5693764370819396
2022-12-18T19:03:42.158Z,-2.5331515206939796
2022-12-18T19:17:29.532Z,-2.470211904264214
2022-12-18T19:23:52.068Z,-2.466707383988294
2022-12-18T19:30:22.509Z,-2.5060089621655517
2022-12-18T19:48:41.789Z,-2.4675872700668893
2022-12-18T19:55:04.481Z,-2.4515592339046823
2022-12-18T20:07:28.380Z,-2.311744878762542
2022-12-18T20:13:54.179Z,-2.2411469220317732
2022-12-18T20:34:48.658Z,-2.1969991116220733
2022-12-18T20:41:38.258Z,-2.180920777591973
2022-12-18T20:48:23.569Z,-2.180688884824415
2022-12-18T20:56:59.346Z,-2.1303805654264214
2022-12-18T21:03:33.799Z,-2.1332103104096993
2022-12-18T21:10:12.580Z,-2.12182339569398
2022-12-18T21:20:00.390Z,-2.144269962374582
2022-12-18T21:26:20.757Z,-2.1126090875836123
2022-12-18T21:32:41.528Z,-2.1105651651337793
2022-12-18T21:44:44.501Z,-2.05463589569398
2022-12-18T21:51:03.896Z,-2.030777069397993
2022-12-18T21:57:27.509Z,-2.0096513116638794
2022-12-18T22:08:07.386Z,-1.9706240854933113
2022-12-18T22:14:27.835Z,-1.9251391356605352
2022-12-18T22:20:49.223Z,-1.9229815530936456
2022-12-18T22:27:10.493Z,-1.9080071592809364
2022-12-18T22:33:30.767Z,-1.847264318561873
2022-12-18T22:39:51.271Z,-1.833698265050167
2022-12-18T22:46:13.990Z,-1.7993422084030097
2022-12-18T22:52:35.184Z,-1.7652572376672242
2022-12-18T22:58:55.454Z,-1.7909196017976592
2022-12-18T23:05:16.215Z,-1.7858970004180599
2022-12-18T23:11:36.013Z,-1.7946769178511706
2022-12-18T23:17:57.144Z,-1.7983578072742474
2022-12-18T23:24:17.997Z,-1.7789578543060198
2022-12-18T23:30:38.588Z,-1.7648927414297657
2022-12-18T23:36:57.893Z,-1.7349491795568563
2022-12-18T23:43:18.947Z,-1.6842966137123745
2022-12-18T23:50:06.784Z,-1.5844514266304348
2022-12-18T23:56:28.394Z,-1.5453791283444815
